Time;durP1;ratioP1;P1;durP2;ratioP2;P2;SDS_P1;SDS_P2;PMS_P1;PMS_P2;Temp;Humidity;BMP_temperature;BMP_pressure;BME280_temperature;BME280_humidity;BME280_pressure;Samples;Min_cycle;Max_cycle;Signal;HPM_P1;HPM_P2
2024/01/09 00:01:56;;;;;;;4.32;2.25;;;1.40;55.40;3.20;103190.00;;;;5047396;28;20205;-73
2024/01/09 00:04:23;;;;;;;3.65;2.47;;;1.40;55.50;3.10;103191.00;;;;5048887;28;20282;-74
2024/01/09 00:06:50;;;;;;;4.47;2.58;;;1.40;55.60;3.10;103191.00;;;;5048893;28;20580;-73
2024/01/09 00:09:19;;;;;;;3.47;2.53;;;1.40;55.50;3.10;103192.00;;;;5022872;28;20196;-74
2024/01/09 00:11:46;;;;;;;4.40;2.65;;;1.40;55.50;3.10;103189.00;;;;5044813;28;20519;-73
2024/01/09 00:14:15;;;;;;;3.80;2.35;;;1.40;55.60;3.10;103193.00;;;;5038168;28;20192;-73
2024/01/09 00:16:42;;;;;;;5.20;2.75;;;1.40;55.60;3.10;103189.00;;;;5032202;28;20228;-73
2024/01/09 00:19:09;;;;;;;3.88;2.28;;;1.40;55.60;3.10;103188.00;;;;5032059;28;20226;-74
2024/01/09 00:21:36;;;;;;;4.22;2.58;;;1.40;55.70;3.10;103189.00;;;;5032508;28;20196;-74
2024/01/09 00:24:04;;;;;;;3.00;2.15;;;1.30;55.60;3.10;103193.00;;;;5031721;28;20203;-72
2024/01/09 00:26:32;;;;;;;5.40;2.45;;;1.30;55.60;3.10;103196.00;;;;5032680;28;20283;-72
2024/01/09 00:28:59;;;;;;;4.03;2.35;;;1.30;56.20;3.10;103193.00;;;;5039443;28;20210;-74
2024/01/09 00:31:26;;;;;;;4.85;2.53;;;1.30;55.60;3.00;103196.00;;;;5037286;28;20299;-74
2024/01/09 00:33:53;;;;;;;3.53;2.45;;;1.30;55.70;3.00;103197.00;;;;5021044;28;20218;-74
2024/01/09 00:36:20;;;;;;;3.80;2.22;;;1.30;55.70;3.00;103197.00;;;;5032072;28;20232;-74
2024/01/09 00:38:47;;;;;;;5.00;2.70;;;1.30;55.80;3.00;103194.00;;;;5018451;28;20200;-75
2024/01/09 00:41:14;;;;;;;3.88;2.95;;;1.30;55.70;3.00;103196.00;;;;5025831;28;20273;-74
2024/01/09 00:43:43;;;;;;;3.95;2.45;;;1.30;55.70;3.00;103192.00;;;;5032568;28;20528;-74
2024/01/09 00:46:10;;;;;;;4.88;2.55;;;1.30;55.80;3.00;103190.00;;;;5040345;28;20199;-74
2024/01/09 00:48:37;;;;;;;4.88;2.25;;;1.20;55.70;3.00;103192.00;;;;5052683;28;20222;-74
2024/01/09 00:51:05;;;;;;;3.88;2.60;;;1.20;55.70;3.00;103188.00;;;;5036273;28;20196;-75
2024/01/09 00:53:32;;;;;;;3.33;2.63;;;1.20;55.80;3.00;103192.00;;;;5032646;28;20200;-75
2024/01/09 00:55:59;;;;;;;3.70;2.15;;;1.20;55.70;3.00;103185.00;;;;5031829;28;20202;-74
2024/01/09 00:58:26;;;;;;;4.13;2.42;;;1.20;55.80;3.00;103186.00;;;;5031903;28;20207;-75
2024/01/09 01:00:54;;;;;;;3.30;1.92;;;1.20;55.70;2.90;103181.00;;;;5030827;28;20555;-74
2024/01/09 01:03:21;;;;;;;2.28;1.75;;;1.20;55.70;3.00;103185.00;;;;5042298;28;20208;-75
2024/01/09 01:05:48;;;;;;;3.97;2.17;;;1.20;55.70;3.00;103188.00;;;;5051766;28;20198;-75
2024/01/09 01:08:15;;;;;;;3.95;2.35;;;1.20;55.70;2.90;103181.00;;;;5051797;28;20511;-74
2024/01/09 01:10:42;;;;;;;3.03;2.00;;;1.20;55.70;2.90;103179.00;;;;5033852;28;20295;-74
2024/01/09 01:13:09;;;;;;;3.05;1.90;;;1.20;55.60;2.90;103179.00;;;;5031803;28;20202;-75
2024/01/09 01:15:37;;;;;;;3.47;2.22;;;1.20;55.60;2.90;103181.00;;;;5030962;28;20688;-73
2024/01/09 01:18:05;;;;;;;3.53;2.15;;;1.20;55.60;2.90;103187.00;;;;5031776;28;20220;-72
2024/01/09 01:20:32;;;;;;;3.13;1.83;;;1.20;55.60;2.90;103184.00;;;;5032238;28;20220;-74
2024/01/09 01:22:59;;;;;;;3.83;2.20;;;1.10;55.60;2.90;103194.00;;;;5030961;28;20295;-73
2024/01/09 01:25:26;;;;;;;3.00;2.10;;;1.10;55.60;2.90;103183.00;;;;5031758;28;20542;-73
2024/01/09 01:27:53;;;;;;;2.95;1.73;;;1.10;55.60;2.90;103180.00;;;;5031526;28;20200;-73
2024/01/09 01:30:20;;;;;;;4.45;2.38;;;1.10;55.50;2.90;103188.00;;;;5030819;28;20207;-73
2024/01/09 01:32:47;;;;;;;2.92;2.28;;;1.10;55.50;2.90;103192.00;;;;5031336;28;20202;-73
2024/01/09 01:35:16;;;;;;;2.63;1.77;;;1.10;55.60;2.90;103186.00;;;;5031801;28;20223;-74
2024/01/09 01:37:43;;;;;;;3.40;2.00;;;1.10;55.60;2.90;103189.00;;;;5031801;28;20240;-73
2024/01/09 01:40:12;;;;;;;3.60;1.85;;;1.10;55.50;2.90;103193.00;;;;5031228;28;20196;-73
2024/01/09 01:42:39;;;;;;;3.05;1.95;;;1.10;55.50;2.80;103186.00;;;;5031625;28;20211;-73
2024/01/09 01:45:16;;;;;;;4.25;2.20;;;1.10;55.50;2.70;103189.00;;;;5031012;28;20209;-73
2024/01/09 01:47:45;;;;;;;3.03;1.88;;;1.10;55.60;2.80;103190.00;;;;5031116;28;20533;-73
2024/01/09 01:50:13;;;;;;;3.53;2.00;;;1.10;55.60;2.80;103178.00;;;;5031437;28;20203;-74
2024/01/09 01:52:44;;;;;;;4.25;2.25;;;1.00;56.10;2.80;103179.00;;;;5030096;28;20204;-74
2024/01/09 01:55:13;;;;;;;4.32;1.80;;;1.00;55.50;2.80;103176.00;;;;5048133;28;20208;-75
2024/01/09 01:57:41;;;;;;;3.97;2.50;;;1.00;55.60;2.80;103180.00;;;;5051371;28;20703;-75
2024/01/09 02:00:10;;;;;;;3.35;2.08;;;1.00;55.60;2.80;103178.00;;;;5037493;28;20199;-74
2024/01/09 02:02:39;;;;;;;3.05;1.92;;;1.00;55.60;2.80;103178.00;;;;5030949;28;20203;-74
2024/01/09 02:05:07;;;;;;;4.13;2.10;;;1.00;55.70;2.80;103180.00;;;;5028715;28;20847;-74
2024/01/09 02:07:36;;;;;;;3.25;2.20;;;1.00;55.70;2.80;103177.00;;;;5031225;28;20192;-74
2024/01/09 02:10:05;;;;;;;3.95;2.22;;;1.00;55.60;2.80;103180.00;;;;5031117;28;20292;-74
2024/01/09 02:12:33;;;;;;;4.40;1.80;;;1.00;55.60;2.80;103187.00;;;;5031192;28;20207;-74
2024/01/09 02:15:00;;;;;;;3.63;2.05;;;1.00;55.60;2.80;103174.00;;;;5031292;28;20189;-74
2024/01/09 02:17:27;;;;;;;3.40;2.05;;;1.00;55.60;2.80;103179.00;;;;5030703;28;20231;-74
2024/01/09 02:19:54;;;;;;;5.00;2.85;;;1.00;55.60;2.80;103176.00;;;;5031238;28;20223;-74
2024/01/09 02:22:23;;;;;;;3.17;2.00;;;1.00;55.60;2.80;103159.00;;;;5031263;28;20224;-74
2024/01/09 02:24:50;;;;;;;3.25;2.00;;;1.00;55.70;2.80;103161.00;;;;5031002;28;20290;-74
2024/01/09 02:27:27;;;;;;;3.45;2.00;;;1.00;55.70;2.70;103154.00;;;;5031324;28;20196;-74
2024/01/09 02:29:57;;;;;;;2.55;1.90;;;1.00;55.70;2.80;103159.00;;;;5039445;28;20196;-74
2024/01/09 02:32:24;;;;;;;2.17;1.45;;;1.00;55.80;2.80;103143.00;;;;5030824;28;20196;-74
2024/01/09 02:34:53;;;;;;;4.57;2.10;;;1.00;55.70;2.80;103154.00;;;;5032120;28;20211;-74
2024/01/09 02:37:20;;;;;;;3.03;1.65;;;1.00;55.80;2.80;103158.00;;;;5027851;28;20220;-75
2024/01/09 02:39:47;;;;;;;3.72;2.03;;;0.90;55.70;2.80;103153.00;;;;5052301;28;20206;-73
2024/01/09 02:42:14;;;;;;;4.30;2.10;;;0.90;55.70;2.80;103152.00;;;;5052175;28;20610;-73
2024/01/09 02:44:41;;;;;;;4.13;2.17;;;0.90;55.70;2.70;103152.00;;;;5042949;28;20210;-73
2024/01/09 02:47:10;;;;;;;3.70;1.90;;;0.90;55.70;2.70;103156.00;;;;5052226;28;20207;-73
2024/01/09 02:49:37;;;;;;;3.25;1.90;;;0.90;55.80;2.70;103153.00;;;;5049270;28;20195;-73
2024/01/09 02:52:05;;;;;;;2.58;1.88;;;0.90;55.80;2.70;103146.00;;;;5038854;28;20314;-73
2024/01/09 02:54:32;;;;;;;3.70;2.20;;;0.90;55.80;2.70;103142.00;;;;5047163;28;20675;-73
2024/01/09 02:56:59;;;;;;;3.63;1.95;;;0.90;55.80;2.70;103147.00;;;;5021643;28;20221;-73
2024/01/09 02:59:26;;;;;;;3.53;2.10;;;0.90;55.80;2.70;103157.00;;;;5049177;28;20582;-73
2024/01/09 03:01:53;;;;;;;3.35;2.38;;;0.90;55.80;2.70;103144.00;;;;5047170;28;20680;-73
2024/01/09 03:04:22;;;;;;;3.22;2.00;;;0.90;56.40;2.60;103144.00;;;;5042058;28;20205;-73
2024/01/09 03:06:49;;;;;;;4.10;2.00;;;0.80;55.80;2.60;103147.00;;;;5033846;28;20262;-73
2024/01/09 03:09:16;;;;;;;2.95;2.30;;;0.80;55.80;2.60;103147.00;;;;5047113;28;20202;-74
2024/01/09 03:11:44;;;;;;;3.60;2.33;;;0.80;55.80;2.60;103144.00;;;;5051791;28;20282;-73
2024/01/09 03:14:12;;;;;;;4.55;2.72;;;0.80;55.90;2.50;103143.00;;;;5046862;28;20203;-74
2024/01/09 03:16:39;;;;;;;3.25;2.28;;;0.80;55.90;2.60;103136.00;;;;5038624;28;20204;-73
2024/01/09 03:19:06;;;;;;;4.10;2.72;;;0.80;55.90;2.50;103135.00;;;;5039083;28;20311;-73
2024/01/09 03:21:35;;;;;;;3.50;2.20;;;0.80;56.00;2.50;103134.00;;;;5020967;28;20196;-73
2024/01/09 03:24:02;;;;;;;4.93;2.22;;;0.70;56.00;2.50;103140.00;;;;5027440;28;20206;-73
2024/01/09 03:26:29;;;;;;;3.97;2.38;;;0.70;56.10;2.50;103123.00;;;;5047786;28;20238;-73
2024/01/09 03:28:56;;;;;;;3.10;2.20;;;0.70;56.10;2.50;103129.00;;;;5050302;28;20199;-73
2024/01/09 03:31:24;;;;;;;3.20;2.22;;;0.70;56.10;2.50;103127.00;;;;5038300;28;20327;-73
2024/01/09 03:33:52;;;;;;;5.35;2.80;;;0.70;56.10;2.50;103123.00;;;;5049589;28;20230;-74
2024/01/09 03:36:19;;;;;;;4.28;2.58;;;0.70;56.20;2.40;103130.00;;;;5040228;28;20319;-73
2024/01/09 03:38:48;;;;;;;4.57;3.05;;;0.70;56.20;2.40;103130.00;;;;5045842;28;20253;-73
2024/01/09 03:41:15;;;;;;;3.58;2.17;;;0.70;56.20;2.40;103122.00;;;;5050534;28;20692;-73
2024/01/09 03:43:42;;;;;;;4.47;2.60;;;0.60;56.20;2.40;103130.00;;;;5035180;28;20266;-73
2024/01/09 03:46:09;;;;;;;3.92;2.53;;;0.60;56.80;2.40;103123.00;;;;5041614;28;20195;-73
2024/01/09 03:48:36;;;;;;;3.40;2.47;;;0.60;56.30;2.40;103130.00;;;;5038422;28;20637;-72
2024/01/09 03:51:03;;;;;;;5.25;2.95;;;0.60;56.30;2.40;103131.00;;;;5047038;28;20196;-73
2024/01/09 03:53:30;;;;;;;3.25;2.10;;;0.60;56.30;2.30;103126.00;;;;5050765;28;20196;-73
2024/01/09 03:55:58;;;;;;;5.20;2.70;;;0.60;56.30;2.30;103127.00;;;;5050754;28;20192;-73
2024/01/09 03:58:25;;;;;;;2.88;2.10;;;0.60;56.30;2.30;103126.00;;;;5040781;28;20226;-73
2024/01/09 04:00:53;;;;;;;3.92;2.58;;;0.60;56.40;2.30;103126.00;;;;5048434;28;20198;-74
2024/01/09 04:03:20;;;;;;;3.28;2.33;;;0.60;56.40;2.30;103127.00;;;;5048620;28;20615;-73
2024/01/09 04:05:47;;;;;;;3.72;2.47;;;0.50;56.40;2.30;103126.00;;;;5049596;28;20191;-73
2024/01/09 04:08:15;;;;;;;3.17;2.10;;;0.50;56.40;2.30;103129.00;;;;5039979;28;20204;-74
2024/01/09 04:10:42;;;;;;;3.60;2.28;;;0.50;56.30;2.30;103122.00;;;;5039676;28;20212;-74
2024/01/09 04:13:10;;;;;;;3.92;2.13;;;0.50;56.40;2.30;103109.00;;;;5037561;28;20199;-73
2024/01/09 04:15:37;;;;;;;4.00;2.35;;;0.50;56.40;2.30;103112.00;;;;5050538;28;20203;-74
2024/01/09 04:18:05;;;;;;;6.25;3.13;;;0.50;56.40;2.30;103119.00;;;;5048213;28;20215;-74
2024/01/09 04:20:32;;;;;;;3.92;2.53;;;0.50;56.40;2.30;103109.00;;;;5040869;28;20222;-73
2024/01/09 04:22:59;;;;;;;5.35;2.88;;;0.50;56.40;2.30;103117.00;;;;5037448;28;20192;-73
2024/01/09 04:25:26;;;;;;;5.18;2.70;;;0.50;56.50;2.20;103108.00;;;;5049918;28;20195;-73
2024/01/09 04:27:53;;;;;;;3.90;2.42;;;0.50;56.40;2.20;103101.00;;;;5043523;28;20215;-74
2024/01/09 04:30:21;;;;;;;3.97;2.45;;;0.40;56.30;2.20;103103.00;;;;5033145;28;20202;-73
2024/01/09 04:32:48;;;;;;;4.75;2.72;;;0.50;56.40;2.20;103107.00;;;;5036278;28;20200;-73
2024/01/09 04:35:15;;;;;;;3.28;2.15;;;0.40;56.30;2.20;103111.00;;;;5035013;28;20224;-73
2024/01/09 04:37:42;;;;;;;4.82;2.95;;;0.40;56.30;2.20;103118.00;;;;5025121;28;20215;-73
2024/01/09 04:40:10;;;;;;;5.78;2.85;;;0.40;56.40;2.20;103121.00;;;;5051990;28;20204;-73
2024/01/09 04:42:37;;;;;;;3.85;2.10;;;0.40;56.40;2.20;103116.00;;;;5045361;28;20299;-73
2024/01/09 04:45:05;;;;;;;4.55;2.70;;;0.40;56.40;2.20;103115.00;;;;5046504;28;20199;-73
2024/01/09 04:47:34;;;;;;;3.75;2.20;;;0.40;56.40;2.20;103108.00;;;;5049649;28;20207;-73
2024/01/09 04:50:04;;;;;;;4.40;2.63;;;0.40;56.30;2.20;103111.00;;;;5045902;28;20192;-73
2024/01/09 04:52:31;;;;;;;5.10;2.58;;;0.40;56.30;2.10;103124.00;;;;5035501;28;20196;-73
2024/01/09 04:54:58;;;;;;;3.80;2.38;;;0.40;56.40;2.10;103124.00;;;;5032407;28;20191;-73
2024/01/09 04:57:25;;;;;;;3.25;2.20;;;0.40;56.30;2.10;103115.00;;;;5030935;28;20239;-73
2024/01/09 04:59:52;;;;;;;3.83;2.30;;;0.30;56.30;2.10;103121.00;;;;5043059;28;20528;-73
2024/01/09 05:02:19;;;;;;;4.03;2.50;;;0.30;56.30;2.10;103108.00;;;;5039123;28;20202;-73
2024/01/09 05:04:47;;;;;;;4.80;2.47;;;0.30;56.30;2.10;103111.00;;;;5049587;28;20200;-73
2024/01/09 05:07:14;;;;;;;3.50;2.42;;;0.30;56.30;2.10;103123.00;;;;5035299;28;20554;-73
2024/01/09 05:09:41;;;;;;;4.18;2.13;;;0.30;56.20;2.10;103099.00;;;;5048041;28;20195;-73
2024/01/09 05:12:08;;;;;;;3.38;2.47;;;0.30;56.30;2.10;103114.00;;;;5046671;28;20200;-73
2024/01/09 05:14:35;;;;;;;5.97;2.58;;;0.30;56.30;2.00;103113.00;;;;5047068;28;20230;-73
2024/01/09 05:17:02;;;;;;;4.35;2.88;;;0.30;56.20;2.00;103111.00;;;;5049388;28;20278;-72
2024/01/09 05:19:29;;;;;;;4.28;2.70;;;0.30;56.20;2.00;103110.00;;;;5048818;28;20262;-73
2024/01/09 05:21:58;;;;;;;4.35;2.28;;;0.20;56.10;2.00;103119.00;;;;5036717;28;20208;-73
2024/01/09 05:24:25;;;;;;;4.20;2.65;;;0.20;56.10;2.00;103110.00;;;;5049555;28;20294;-73
2024/01/09 05:26:52;;;;;;;4.10;2.45;;;0.20;56.20;2.00;103111.00;;;;5035607;28;20679;-74
2024/01/09 05:29:19;;;;;;;4.03;2.70;;;0.20;56.10;2.00;103121.00;;;;5049200;28;20282;-74
2024/01/09 05:31:46;;;;;;;4.57;2.40;;;0.20;56.10;2.00;103118.00;;;;5036891;28;20198;-74
2024/01/09 05:34:13;;;;;;;4.43;2.70;;;0.20;56.10;2.00;103122.00;;;;5047381;28;20188;-73
2024/01/09 05:36:40;;;;;;;3.75;2.30;;;0.20;56.10;2.00;103119.00;;;;5037640;28;20707;-74
2024/01/09 05:39:09;;;;;;;3.83;2.28;;;0.20;56.10;1.90;103118.00;;;;5049371;28;20220;-74
2024/01/09 05:41:36;;;;;;;4.53;2.58;;;0.20;56.10;1.90;103115.00;;;;5049866;28;20290;-74
2024/01/09 05:44:03;;;;;;;4.38;2.63;;;0.20;56.00;1.90;103118.00;;;;5045992;28;20223;-74
2024/01/09 05:46:30;;;;;;;4.75;2.83;;;0.20;56.10;1.90;103123.00;;;;5051331;28;20199;-73
2024/01/09 05:48:57;;;;;;;3.58;2.38;;;0.20;56.00;2.00;103129.00;;;;5049750;28;20188;-74
2024/01/09 05:51:24;;;;;;;4.88;2.95;;;0.20;56.00;1.90;103128.00;;;;5036694;28;20200;-75
2024/01/09 05:53:51;;;;;;;4.13;2.47;;;0.10;55.90;1.90;103133.00;;;;5043170;28;20685;-73
2024/01/09 05:56:19;;;;;;;3.72;2.60;;;0.10;55.90;1.90;103131.00;;;;5046186;28;20195;-74
2024/01/09 05:58:46;;;;;;;4.20;2.50;;;0.10;56.00;1.90;103133.00;;;;5040187;28;20223;-74
2024/01/09 06:01:13;;;;;;;4.68;2.80;;;0.10;56.00;1.90;103131.00;;;;5041738;28;20286;-73
2024/01/09 06:03:40;;;;;;;3.70;2.78;;;0.10;56.00;1.90;103133.00;;;;5047753;28;20188;-73
2024/01/09 06:06:07;;;;;;;3.83;2.47;;;0.10;56.00;1.90;103135.00;;;;5040049;28;20196;-73
2024/01/09 06:08:34;;;;;;;3.47;2.38;;;0.10;56.00;1.90;103142.00;;;;5034030;28;20200;-73
2024/01/09 06:11:02;;;;;;;3.95;2.63;;;0.10;56.00;1.90;103147.00;;;;5037394;28;20193;-73
2024/01/09 06:13:30;;;;;;;3.47;2.50;;;0.10;56.10;1.90;103144.00;;;;5035811;28;20279;-73
2024/01/09 06:15:57;;;;;;;5.07;3.08;;;0.10;56.10;1.90;103154.00;;;;5042814;28;20672;-73
2024/01/09 06:18:24;;;;;;;3.70;2.35;;;0.10;56.10;1.90;103145.00;;;;5040250;28;20233;-73
2024/01/09 06:20:51;;;;;;;3.72;2.28;;;0.10;56.10;1.90;103156.00;;;;5037621;28;20212;-73
2024/01/09 06:23:18;;;;;;;3.53;2.70;;;0.10;56.60;1.80;103162.00;;;;5052758;28;20574;-73
2024/01/09 06:25:45;;;;;;;4.85;3.17;;;0.00;55.90;1.80;103165.00;;;;5045647;28;20665;-73
2024/01/09 06:28:12;;;;;;;7.07;3.03;;;0.00;55.90;1.80;103165.00;;;;5052167;28;20274;-73
2024/01/09 06:30:41;;;;;;;5.03;3.03;;;0.00;55.90;1.80;103163.00;;;;5045856;28;20707;-73
2024/01/09 06:33:08;;;;;;;3.72;2.45;;;0.00;56.50;1.80;103175.00;;;;5048328;28;20645;-73
2024/01/09 06:35:36;;;;;;;4.43;2.65;;;0.00;56.30;1.80;103175.00;;;;5038016;28;20219;-74
2024/01/09 06:38:03;;;;;;;3.75;2.28;;;0.00;56.00;1.80;103174.00;;;;5028182;28;20215;-73
2024/01/09 06:40:30;;;;;;;6.30;3.15;;;0.00;56.00;1.80;103172.00;;;;5028299;28;20200;-73
2024/01/09 06:42:57;;;;;;;4.95;2.65;;;0.00;56.00;1.80;103181.00;;;;5032195;28;20200;-72
2024/01/09 06:45:24;;;;;;;5.07;3.47;;;0.00;56.00;1.80;103178.00;;;;5032765;28;20192;-73
2024/01/09 06:47:52;;;;;;;6.00;3.97;;;-0.10;56.60;1.70;103171.00;;;;5033500;28;20203;-72
2024/01/09 06:50:19;;;;;;;4.82;2.92;;;-0.10;56.00;1.70;103178.00;;;;5039959;28;20196;-72
2024/01/09 06:52:46;;;;;;;5.05;3.15;;;-0.10;55.90;1.70;103168.00;;;;5030874;28;20576;-73
2024/01/09 06:55:13;;;;;;;5.22;2.90;;;-0.10;55.90;1.70;103171.00;;;;5030788;28;20200;-73
2024/01/09 06:57:40;;;;;;;4.85;2.67;;;-0.10;55.80;1.70;103173.00;;;;5033309;28;20192;-72
2024/01/09 07:00:08;;;;;;;4.30;2.85;;;-0.10;55.80;1.70;103177.00;;;;5033441;28;20200;-73
2024/01/09 07:02:36;;;;;;;4.32;2.72;;;-0.10;55.70;1.60;103181.00;;;;5030546;28;20717;-73
2024/01/09 07:05:05;;;;;;;4.95;3.05;;;-0.20;55.70;1.60;103182.00;;;;5028774;28;20216;-73
2024/01/09 07:07:32;;;;;;;5.47;2.95;;;-0.20;55.60;1.60;103179.00;;;;5031328;28;20584;-73
2024/01/09 07:09:59;;;;;;;5.78;3.30;;;-0.20;55.70;1.60;103177.00;;;;5033919;28;20196;-73
2024/01/09 07:12:27;;;;;;;4.88;3.17;;;-0.20;55.70;1.60;103186.00;;;;5032074;28;20283;-73
2024/01/09 07:14:54;;;;;;;5.45;3.15;;;-0.20;55.80;1.60;103180.00;;;;5032631;28;20215;-73
2024/01/09 07:17:21;;;;;;;6.07;3.47;;;-0.20;55.70;1.60;103183.00;;;;5031800;28;20558;-73
2024/01/09 07:19:48;;;;;;;6.47;3.33;;;-0.20;55.80;1.60;103180.00;;;;5031260;28;20223;-74
2024/01/09 07:22:17;;;;;;;5.75;3.38;;;-0.20;55.80;1.60;103177.00;;;;5032528;28;20287;-73
2024/01/09 07:24:44;;;;;;;6.85;3.95;;;-0.20;55.60;1.50;103180.00;;;;5034163;28;20189;-73
2024/01/09 07:27:12;;;;;;;7.47;3.42;;;-0.30;55.60;1.50;103180.00;;;;5032329;28;20295;-73
2024/01/09 07:29:39;;;;;;;4.85;3.00;;;-0.30;55.50;1.50;103184.00;;;;5033154;28;20250;-74
2024/01/09 07:32:07;;;;;;;5.47;3.40;;;-0.30;56.10;1.50;103178.00;;;;5013399;28;20200;-73
2024/01/09 07:34:34;;;;;;;6.72;3.67;;;-0.30;55.50;1.50;103172.00;;;;5044921;28;20657;-73
2024/01/09 07:37:01;;;;;;;7.00;3.90;;;-0.30;55.70;1.50;103181.00;;;;5043794;28;20220;-74
2024/01/09 07:39:30;;;;;;;4.85;3.47;;;-0.30;55.60;1.40;103169.00;;;;5032929;28;20274;-74
2024/01/09 07:41:57;;;;;;;5.20;3.38;;;-0.40;55.40;1.40;103175.00;;;;5033690;28;20232;-74
2024/01/09 07:44:24;;;;;;;4.45;2.95;;;-0.40;55.40;1.40;103185.00;;;;5031116;28;20197;-74
2024/01/09 07:46:51;;;;;;;4.75;3.28;;;-0.40;55.40;1.40;103179.00;;;;5032589;28;20196;-74
2024/01/09 07:49:18;;;;;;;6.97;3.72;;;-0.40;56.00;1.30;103180.00;;;;5031906;28;20208;-73
2024/01/09 07:51:46;;;;;;;5.35;3.50;;;-0.40;55.30;1.30;103179.00;;;;5037081;28;20283;-73
2024/01/09 07:54:13;;;;;;;4.70;3.17;;;-0.40;55.50;1.30;103187.00;;;;5032229;28;20192;-73
2024/01/09 07:56:42;;;;;;;6.22;3.42;;;-0.50;55.40;1.30;103193.00;;;;5033336;28;20204;-73
2024/01/09 07:59:09;;;;;;;4.72;3.05;;;-0.50;55.40;1.30;103196.00;;;;5031748;28;20220;-73
2024/01/09 08:01:37;;;;;;;8.10;3.50;;;-0.50;55.30;1.30;103195.00;;;;5030710;28;20207;-73
2024/01/09 08:04:06;;;;;;;5.93;3.58;;;-0.50;55.30;1.30;103187.00;;;;5016552;28;20200;-73
2024/01/09 08:06:33;;;;;;;6.43;3.25;;;-0.50;55.30;1.30;103197.00;;;;5031274;28;20210;-73
2024/01/09 08:09:00;;;;;;;5.38;3.50;;;-0.50;55.90;1.20;103189.00;;;;5035554;28;20204;-74
2024/01/09 08:11:27;;;;;;;5.40;3.10;;;-0.50;55.30;1.20;103189.00;;;;5030212;28;20272;-73
2024/01/09 08:13:55;;;;;;;5.72;3.28;;;-0.50;55.30;1.20;103182.00;;;;5032689;28;20230;-73
2024/01/09 08:16:23;;;;;;;6.13;3.25;;;-0.50;55.40;1.20;103193.00;;;;5031277;28;20246;-74
2024/01/09 08:18:50;;;;;;;4.80;3.22;;;-0.60;55.20;1.20;103194.00;;;;5030959;28;20452;-74
2024/01/09 08:21:17;;;;;;;5.95;3.38;;;-0.60;55.10;1.20;103200.00;;;;5029892;28;20200;-74
2024/01/09 08:23:44;;;;;;;6.07;2.92;;;-0.60;55.30;1.20;103206.00;;;;5030422;28;20199;-75
2024/01/09 08:26:13;;;;;;;5.60;3.20;;;-0.60;55.30;1.20;103207.00;;;;5046760;28;20411;-75
2024/01/09 08:28:40;;;;;;;6.25;3.67;;;-0.60;55.30;1.20;103211.00;;;;5030243;28;20646;-74
2024/01/09 08:31:08;;;;;;;4.30;3.30;;;-0.60;55.30;1.20;103209.00;;;;5029274;28;20211;-74
2024/01/09 08:33:35;;;;;;;4.68;2.70;;;-0.60;55.30;1.20;103208.00;;;;5030144;28;20576;-73
2024/01/09 08:36:03;;;;;;;5.82;3.13;;;-0.50;55.30;1.20;103208.00;;;;5031726;28;20685;-75
2024/01/09 08:38:30;;;;;;;4.75;2.85;;;-0.50;55.30;1.20;103203.00;;;;5032053;28;20283;-74
2024/01/09 08:40:57;;;;;;;5.10;2.90;;;-0.50;55.20;1.20;103203.00;;;;5013864;28;20204;-75
2024/01/09 08:43:25;;;;;;;6.40;3.15;;;-0.50;55.20;1.30;103205.00;;;;5032039;28;20192;-75
2024/01/09 08:45:52;;;;;;;4.97;3.58;;;-0.50;55.20;1.30;103198.00;;;;5026620;28;20295;-74
2024/01/09 08:48:20;;;;;;;6.65;3.25;;;-0.50;55.30;1.30;103216.00;;;;5015725;28;20192;-75
2024/01/09 08:50:48;;;;;;;4.97;2.90;;;-0.50;55.30;1.30;103218.00;;;;5031785;28;20288;-75
2024/01/09 08:53:15;;;;;;;5.28;3.15;;;-0.50;55.20;1.30;103215.00;;;;5032560;28;20204;-75
2024/01/09 08:55:42;;;;;;;4.35;2.75;;;-0.50;55.20;1.30;103222.00;;;;5030886;28;20635;-75
2024/01/09 08:58:09;;;;;;;5.78;3.47;;;-0.40;55.20;1.30;103221.00;;;;5032623;28;20194;-75
2024/01/09 09:00:36;;;;;;;5.38;3.10;;;-0.40;55.10;1.30;103226.00;;;;5028309;28;20231;-75
2024/01/09 09:03:04;;;;;;;5.40;3.08;;;-0.40;55.00;1.40;103198.00;;;;5029077;28;20207;-74
2024/01/09 09:05:32;;;;;;;4.57;2.80;;;-0.40;55.10;1.40;103211.00;;;;5030140;28;20184;-75
2024/01/09 09:07:59;;;;;;;4.50;2.75;;;-0.40;55.00;1.40;103217.00;;;;5030652;28;20196;-75
2024/01/09 09:10:26;;;;;;;5.30;3.10;;;-0.40;55.10;1.40;103221.00;;;;5026265;28;20665;-75
2024/01/09 09:12:53;;;;;;;6.10;3.30;;;-0.30;55.20;1.50;103213.00;;;;5031195;28;20206;-75
2024/01/09 09:15:20;;;;;;;5.07;3.10;;;-0.30;55.10;1.50;103218.00;;;;5033289;28;20196;-75
2024/01/09 09:17:47;;;;;;;5.72;3.15;;;-0.30;55.10;1.50;103232.00;;;;5033199;28;20761;-75
2024/01/09 09:20:16;;;;;;;5.63;2.85;;;-0.30;55.60;1.60;103222.00;;;;5030773;28;20315;-75
2024/01/09 09:22:45;;;;;;;5.95;2.80;;;-0.20;55.00;1.60;103222.00;;;;5029312;28;20199;-75
2024/01/09 09:25:12;;;;;;;3.97;2.55;;;-0.20;54.80;1.60;103222.00;;;;5042833;28;20206;-75
2024/01/09 09:27:41;;;;;;;4.72;2.85;;;-0.10;54.80;1.70;103226.00;;;;5030149;28;20279;-75
2024/01/09 09:30:11;;;;;;;4.18;3.08;;;-0.10;54.70;1.80;103231.00;;;;5030693;28;20294;-75
2024/01/09 09:32:38;;;;;;;5.38;3.30;;;-0.10;54.70;1.80;103235.00;;;;5036149;28;20243;-75
2024/01/09 09:35:05;;;;;;;5.63;3.45;;;0.00;54.70;1.90;103225.00;;;;5044037;28;20307;-75
2024/01/09 09:37:32;;;;;;;5.03;2.83;;;0.00;54.70;1.90;103222.00;;;;5030402;28;20203;-74
2024/01/09 09:40:01;;;;;;;4.53;3.05;;;0.10;54.60;1.90;103220.00;;;;5029400;28;20224;-75
2024/01/09 09:42:31;;;;;;;5.07;2.85;;;0.10;54.50;2.00;103236.00;;;;5030494;28;20239;-75
2024/01/09 09:45:02;;;;;;;3.88;2.70;;;0.20;54.50;2.00;103228.00;;;;5033436;28;20287;-75
2024/01/09 09:47:30;;;;;;;5.35;2.85;;;0.20;54.20;2.00;103242.00;;;;5032941;28;20196;-74
2024/01/09 09:49:58;;;;;;;4.13;2.33;;;0.20;54.20;2.00;103237.00;;;;5034987;28;20335;-75
2024/01/09 09:52:29;;;;;;;4.55;2.65;;;0.30;54.30;2.10;103234.00;;;;5025019;28;20201;-75
2024/01/09 09:54:58;;;;;;;4.45;3.10;;;0.30;54.30;2.10;103233.00;;;;5020030;28;20202;-75
2024/01/09 09:57:27;;;;;;;4.13;2.70;;;0.30;54.00;2.10;103228.00;;;;5035144;28;20318;-75
2024/01/09 09:59:54;;;;;;;3.80;2.58;;;0.40;54.10;2.20;103228.00;;;;5034561;28;20223;-75
2024/01/09 10:02:25;;;;;;;3.97;2.60;;;0.40;54.10;2.20;103230.00;;;;5029493;28;20201;-75
2024/01/09 10:04:53;;;;;;;5.45;3.53;;;0.40;53.90;2.30;103228.00;;;;5026740;28;20666;-75
2024/01/09 10:07:22;;;;;;;5.72;3.35;;;0.50;53.80;2.30;103231.00;;;;5035134;28;20196;-75
2024/01/09 10:09:53;;;;;;;3.42;2.80;;;0.50;53.70;2.40;103222.00;;;;5034130;28;20208;-75
2024/01/09 10:12:23;;;;;;;5.38;3.13;;;0.60;53.80;2.40;103219.00;;;;5023763;28;20196;-75
2024/01/09 10:15:12;;;;;;;4.00;2.67;;;0.60;53.50;2.40;103220.00;;;;5034725;28;20564;-75
2024/01/09 10:17:40;;;;;;;4.68;2.88;;;0.70;53.40;2.50;103217.00;;;;5034475;28;20188;-74
2024/01/09 10:20:10;;;;;;;6.13;3.13;;;0.70;53.40;2.60;103224.00;;;;5030235;28;20355;-75
2024/01/09 10:22:38;;;;;;;5.82;2.78;;;0.70;53.60;2.60;103212.00;;;;5031494;28;20192;-75
2024/01/09 10:25:07;;;;;;;4.35;2.78;;;0.80;53.10;2.60;103215.00;;;;5034395;28;20251;-75
2024/01/09 10:27:36;;;;;;;4.53;3.10;;;0.90;53.40;2.70;103210.00;;;;5033104;28;20203;-75
2024/01/09 10:30:04;;;;;;;5.75;2.95;;;0.90;53.30;2.80;103214.00;;;;5034231;28;20845;-75
2024/01/09 10:32:35;;;;;;;4.22;2.60;;;0.90;53.10;2.80;103219.00;;;;5033959;28;20215;-75
2024/01/09 10:35:03;;;;;;;4.28;2.55;;;1.00;53.10;2.90;103214.00;;;;5034076;28;20593;-75
2024/01/09 10:37:31;;;;;;;5.28;3.30;;;1.00;52.90;2.90;103211.00;;;;5033060;28;20251;-75
2024/01/09 10:39:58;;;;;;;3.90;2.47;;;1.00;53.00;2.90;103205.00;;;;5033905;28;20220;-75
2024/01/09 10:42:26;;;;;;;3.72;2.20;;;1.10;52.70;2.90;103200.00;;;;5029548;28;20724;-75
2024/01/09 10:44:53;;;;;;;3.72;2.42;;;1.20;52.50;3.00;103206.00;;;;5032342;28;21002;-75
2024/01/09 10:47:23;;;;;;;3.60;2.30;;;1.20;52.50;3.10;103207.00;;;;5031369;28;20197;-74
2024/01/09 10:49:54;;;;;;;4.10;2.50;;;1.20;52.50;3.10;103211.00;;;;5033580;28;20563;-76
2024/01/09 10:52:22;;;;;;;3.90;2.60;;;1.30;52.60;3.20;103200.00;;;;5032407;28;20580;-75
2024/01/09 10:54:49;;;;;;;3.38;2.30;;;1.30;52.70;3.20;103203.00;;;;5032871;28;20210;-75
2024/01/09 10:57:18;;;;;;;4.30;3.08;;;1.40;52.50;3.20;103207.00;;;;5032481;28;20655;-76
2024/01/09 10:59:48;;;;;;;4.05;2.50;;;1.40;52.10;3.30;103204.00;;;;5033546;28;20216;-75
2024/01/09 11:02:17;;;;;;;4.32;2.47;;;1.50;52.20;3.30;103191.00;;;;5030729;28;20223;-76